Terminal Aerodrome Forecast
Issued by NWS

Home | Current Version | Previous Version | Text Only | Print | Product List | Glossary On
Versions: 1 2 3 4 5 6 7 8 9 10 11 12 13 14 15 16 17 18 19 20 21 22 23 24 25 26 27 28 29 30 31 32 33 34 35 36 37 38 39 40 41
383
FTUS41 KBTV 110537
TAFPBG
TAF
KPBG 110537Z 1106/1206 VRB03KT P6SM VCSH OVC045
     FM110900 32004KT P6SM OVC040
     FM111800 29013G19KT P6SM OVC040
     FM120200 30009KT P6SM BKN040
     FM120300 30009KT P6SM SCT070=

USA.gov is the U.S. government's official web portal to all federal, state and local government web resources and services.